sensor_id;sensor_type;location;lat;lon;timestamp;P1;durP1;ratioP1;P2;durP2;ratioP2
50086;SDS011;35967;50.718;7.050;2023-06-26T00:02:11;5.93;;;3.00;;
50086;SDS011;35967;50.718;7.050;2023-06-26T00:12:14;6.97;;;3.30;;
50086;SDS011;35967;50.718;7.050;2023-06-26T00:22:18;5.82;;;3.60;;
50086;SDS011;35967;50.718;7.050;2023-06-26T00:32:21;6.13;;;3.33;;
50086;SDS011;35967;50.718;7.050;2023-06-26T00:42:25;11.23;;;3.20;;
50086;SDS011;35967;50.718;7.050;2023-06-26T00:52:28;5.70;;;2.90;;
50086;SDS011;35967;50.718;7.050;2023-06-26T01:02:35;4.97;;;2.67;;
50086;SDS011;35967;50.718;7.050;2023-06-26T01:12:40;5.15;;;3.10;;
50086;SDS011;35967;50.718;7.050;2023-06-26T01:22:47;5.00;;;3.03;;
50086;SDS011;35967;50.718;7.050;2023-06-26T01:33:00;4.70;;;2.90;;
50086;SDS011;35967;50.718;7.050;2023-06-26T01:43:05;4.90;;;2.97;;
50086;SDS011;35967;50.718;7.050;2023-06-26T01:53:17;7.32;;;3.63;;
50086;SDS011;35967;50.718;7.050;2023-06-26T02:03:22;6.43;;;3.53;;
50086;SDS011;35967;50.718;7.050;2023-06-26T02:13:27;7.90;;;3.25;;
50086;SDS011;35967;50.718;7.050;2023-06-26T02:23:30;4.72;;;2.97;;
50086;SDS011;35967;50.718;7.050;2023-06-26T02:33:35;4.97;;;2.60;;
50086;SDS011;35967;50.718;7.050;2023-06-26T02:43:38;5.63;;;3.00;;
50086;SDS011;35967;50.718;7.050;2023-06-26T02:53:42;4.57;;;3.00;;
50086;SDS011;35967;50.718;7.050;2023-06-26T03:03:45;6.07;;;3.58;;
50086;SDS011;35967;50.718;7.050;2023-06-26T03:13:52;8.27;;;4.13;;
50086;SDS011;35967;50.718;7.050;2023-06-26T03:23:56;6.22;;;3.33;;
50086;SDS011;35967;50.718;7.050;2023-06-26T03:34:00;4.28;;;2.78;;
50086;SDS011;35967;50.718;7.050;2023-06-26T03:44:04;7.45;;;3.97;;
50086;SDS011;35967;50.718;7.050;2023-06-26T03:54:17;6.30;;;3.70;;
50086;SDS011;35967;50.718;7.050;2023-06-26T04:04:20;8.13;;;3.75;;
50086;SDS011;35967;50.718;7.050;2023-06-26T04:14:25;5.68;;;3.38;;
50086;SDS011;35967;50.718;7.050;2023-06-26T04:24:28;11.32;;;3.83;;
50086;SDS011;35967;50.718;7.050;2023-06-26T04:34:32;7.03;;;3.95;;
50086;SDS011;35967;50.718;7.050;2023-06-26T04:44:37;9.88;;;3.90;;
50086;SDS011;35967;50.718;7.050;2023-06-26T04:54:44;8.27;;;3.73;;
50086;SDS011;35967;50.718;7.050;2023-06-26T05:04:47;7.45;;;4.30;;
50086;SDS011;35967;50.718;7.050;2023-06-26T05:14:52;6.05;;;3.25;;
50086;SDS011;35967;50.718;7.050;2023-06-26T05:24:55;7.05;;;3.60;;
50086;SDS011;35967;50.718;7.050;2023-06-26T05:35:04;6.82;;;2.85;;
50086;SDS011;35967;50.718;7.050;2023-06-26T05:45:08;5.03;;;2.58;;
50086;SDS011;35967;50.718;7.050;2023-06-26T05:55:14;10.20;;;3.13;;
50086;SDS011;35967;50.718;7.050;2023-06-26T06:15:22;8.35;;;2.33;;
50086;SDS011;35967;50.718;7.050;2023-06-26T06:25:25;5.13;;;2.28;;
50086;SDS011;35967;50.718;7.050;2023-06-26T06:35:30;4.45;;;2.08;;
50086;SDS011;35967;50.718;7.050;2023-06-26T06:45:33;7.72;;;2.20;;
50086;SDS011;35967;50.718;7.050;2023-06-26T06:55:37;7.90;;;2.10;;
50086;SDS011;35967;50.718;7.050;2023-06-26T07:05:41;7.20;;;2.10;;
50086;SDS011;35967;50.718;7.050;2023-06-26T07:15:45;20.17;;;11.82;;
50086;SDS011;35967;50.718;7.050;2023-06-26T07:25:50;8.23;;;2.75;;
50086;SDS011;35967;50.718;7.050;2023-06-26T07:35:54;10.45;;;3.00;;
50086;SDS011;35967;50.718;7.050;2023-06-26T07:45:57;8.38;;;2.30;;
50086;SDS011;35967;50.718;7.050;2023-06-26T07:56:02;10.18;;;2.97;;
50086;SDS011;35967;50.718;7.050;2023-06-26T08:06:06;8.30;;;2.90;;
50086;SDS011;35967;50.718;7.050;2023-06-26T08:16:14;7.18;;;2.40;;
50086;SDS011;35967;50.718;7.050;2023-06-26T08:26:17;8.07;;;2.58;;
50086;SDS011;35967;50.718;7.050;2023-06-26T08:36:21;13.10;;;2.95;;
50086;SDS011;35967;50.718;7.050;2023-06-26T08:46:24;12.73;;;2.20;;
50086;SDS011;35967;50.718;7.050;2023-06-26T08:56:32;12.63;;;1.93;;
50086;SDS011;35967;50.718;7.050;2023-06-26T09:06:38;7.20;;;2.30;;
50086;SDS011;35967;50.718;7.050;2023-06-26T09:16:45;10.63;;;2.58;;
50086;SDS011;35967;50.718;7.050;2023-06-26T09:26:48;8.50;;;1.83;;
50086;SDS011;35967;50.718;7.050;2023-06-26T09:36:54;5.38;;;1.80;;
50086;SDS011;35967;50.718;7.050;2023-06-26T09:46:58;5.00;;;1.45;;
50086;SDS011;35967;50.718;7.050;2023-06-26T09:57:08;8.80;;;1.70;;
50086;SDS011;35967;50.718;7.050;2023-06-26T10:07:12;6.15;;;1.27;;
50086;SDS011;35967;50.718;7.050;2023-06-26T10:17:19;9.50;;;1.27;;
50086;SDS011;35967;50.718;7.050;2023-06-26T10:27:24;7.15;;;1.10;;
50086;SDS011;35967;50.718;7.050;2023-06-26T10:37:43;7.07;;;1.10;;
50086;SDS011;35967;50.718;7.050;2023-06-26T10:47:47;4.25;;;0.80;;
50086;SDS011;35967;50.718;7.050;2023-06-26T10:57:56;7.82;;;0.95;;
50086;SDS011;35967;50.718;7.050;2023-06-26T11:08:02;7.30;;;1.05;;
50086;SDS011;35967;50.718;7.050;2023-06-26T11:18:08;5.13;;;1.00;;
50086;SDS011;35967;50.718;7.050;2023-06-26T11:28:12;4.45;;;0.90;;
50086;SDS011;35967;50.718;7.050;2023-06-26T11:38:16;5.17;;;0.90;;
50086;SDS011;35967;50.718;7.050;2023-06-26T11:48:19;3.97;;;0.70;;
50086;SDS011;35967;50.718;7.050;2023-06-26T11:58:24;4.38;;;0.75;;
50086;SDS011;35967;50.718;7.050;2023-06-26T12:08:28;8.63;;;0.95;;
50086;SDS011;35967;50.718;7.050;2023-06-26T12:18:34;3.50;;;0.80;;
50086;SDS011;35967;50.718;7.050;2023-06-26T12:28:37;5.22;;;1.08;;
50086;SDS011;35967;50.718;7.050;2023-06-26T12:38:42;5.45;;;1.02;;
50086;SDS011;35967;50.718;7.050;2023-06-26T12:48:48;6.07;;;0.90;;
50086;SDS011;35967;50.718;7.050;2023-06-26T12:58:54;4.88;;;0.70;;
50086;SDS011;35967;50.718;7.050;2023-06-26T13:08:57;3.97;;;0.80;;
50086;SDS011;35967;50.718;7.050;2023-06-26T13:19:02;5.05;;;0.70;;
50086;SDS011;35967;50.718;7.050;2023-06-26T13:29:05;4.28;;;0.80;;
50086;SDS011;35967;50.718;7.050;2023-06-26T13:39:09;6.95;;;1.13;;
50086;SDS011;35967;50.718;7.050;2023-06-26T13:49:13;5.25;;;0.65;;
50086;SDS011;35967;50.718;7.050;2023-06-26T13:59:36;2.60;;;0.70;;
50086;SDS011;35967;50.718;7.050;2023-06-26T14:09:41;5.60;;;0.90;;
50086;SDS011;35967;50.718;7.050;2023-06-26T14:19:45;4.30;;;0.68;;
50086;SDS011;35967;50.718;7.050;2023-06-26T14:29:48;7.53;;;0.80;;
50086;SDS011;35967;50.718;7.050;2023-06-26T14:39:53;6.25;;;0.82;;
50086;SDS011;35967;50.718;7.050;2023-06-26T14:49:56;3.73;;;0.77;;
50086;SDS011;35967;50.718;7.050;2023-06-26T15:00:00;4.90;;;0.80;;
50086;SDS011;35967;50.718;7.050;2023-06-26T15:10:05;5.40;;;0.80;;
50086;SDS011;35967;50.718;7.050;2023-06-26T15:20:11;6.27;;;0.73;;
50086;SDS011;35967;50.718;7.050;2023-06-26T15:42:26;4.88;;;0.70;;
50086;SDS011;35967;50.718;7.050;2023-06-26T15:52:30;4.55;;;0.95;;
50086;SDS011;35967;50.718;7.050;2023-06-26T16:02:34;4.03;;;0.75;;
50086;SDS011;35967;50.718;7.050;2023-06-26T16:12:37;5.57;;;0.60;;
50086;SDS011;35967;50.718;7.050;2023-06-26T16:22:41;4.07;;;0.60;;
50086;SDS011;35967;50.718;7.050;2023-06-26T16:32:45;7.47;;;1.63;;
50086;SDS011;35967;50.718;7.050;2023-06-26T16:42:50;3.42;;;0.70;;
50086;SDS011;35967;50.718;7.050;2023-06-26T16:52:53;2.67;;;0.75;;
50086;SDS011;35967;50.718;7.050;2023-06-26T17:02:58;4.90;;;0.60;;
50086;SDS011;35967;50.718;7.050;2023-06-26T17:13:02;3.03;;;0.90;;
50086;SDS011;35967;50.718;7.050;2023-06-26T17:23:06;7.38;;;0.75;;
50086;SDS011;35967;50.718;7.050;2023-06-26T17:33:09;3.92;;;0.90;;
50086;SDS011;35967;50.718;7.050;2023-06-26T17:43:13;3.47;;;0.68;;
50086;SDS011;35967;50.718;7.050;2023-06-26T17:53:20;7.60;;;0.80;;
50086;SDS011;35967;50.718;7.050;2023-06-26T18:03:25;4.53;;;0.90;;
50086;SDS011;35967;50.718;7.050;2023-06-26T18:13:29;4.82;;;0.60;;
50086;SDS011;35967;50.718;7.050;2023-06-26T18:23:34;3.53;;;0.60;;
50086;SDS011;35967;50.718;7.050;2023-06-26T18:33:37;7.18;;;1.00;;
50086;SDS011;35967;50.718;7.050;2023-06-26T18:43:42;3.45;;;0.70;;
50086;SDS011;35967;50.718;7.050;2023-06-26T18:53:48;3.05;;;0.70;;
50086;SDS011;35967;50.718;7.050;2023-06-26T19:03:53;4.03;;;0.80;;
50086;SDS011;35967;50.718;7.050;2023-06-26T19:13:56;2.78;;;0.50;;
50086;SDS011;35967;50.718;7.050;2023-06-26T19:24:01;3.35;;;0.60;;
50086;SDS011;35967;50.718;7.050;2023-06-26T19:34:04;4.47;;;1.38;;
50086;SDS011;35967;50.718;7.050;2023-06-26T19:44:08;4.10;;;0.60;;
50086;SDS011;35967;50.718;7.050;2023-06-26T19:54:13;5.47;;;0.83;;
50086;SDS011;35967;50.718;7.050;2023-06-26T20:04:17;4.15;;;0.65;;
50086;SDS011;35967;50.718;7.050;2023-06-26T20:14:21;5.65;;;0.80;;
50086;SDS011;35967;50.718;7.050;2023-06-26T20:24:26;4.30;;;0.90;;
50086;SDS011;35967;50.718;7.050;2023-06-26T20:34:31;6.93;;;0.80;;
50086;SDS011;35967;50.718;7.050;2023-06-26T20:44:36;1.60;;;0.60;;
50086;SDS011;35967;50.718;7.050;2023-06-26T20:54:40;2.50;;;0.70;;
50086;SDS011;35967;50.718;7.050;2023-06-26T21:04:45;3.57;;;0.60;;
50086;SDS011;35967;50.718;7.050;2023-06-26T21:14:49;4.53;;;0.60;;
50086;SDS011;35967;50.718;7.050;2023-06-26T21:24:53;4.53;;;1.10;;
50086;SDS011;35967;50.718;7.050;2023-06-26T21:34:56;5.17;;;0.90;;
50086;SDS011;35967;50.718;7.050;2023-06-26T21:45:01;3.30;;;0.70;;
50086;SDS011;35967;50.718;7.050;2023-06-26T21:55:04;3.90;;;0.63;;
50086;SDS011;35967;50.718;7.050;2023-06-26T22:05:09;3.30;;;0.60;;
50086;SDS011;35967;50.718;7.050;2023-06-26T22:15:12;2.63;;;0.70;;
50086;SDS011;35967;50.718;7.050;2023-06-26T22:25:16;2.57;;;0.70;;
50086;SDS011;35967;50.718;7.050;2023-06-26T22:35:19;5.73;;;0.70;;
50086;SDS011;35967;50.718;7.050;2023-06-26T22:45:24;5.80;;;0.90;;
50086;SDS011;35967;50.718;7.050;2023-06-26T22:55:27;2.83;;;0.70;;
50086;SDS011;35967;50.718;7.050;2023-06-26T23:05:33;4.27;;;0.87;;
50086;SDS011;35967;50.718;7.050;2023-06-26T23:15:39;6.43;;;0.80;;
50086;SDS011;35967;50.718;7.050;2023-06-26T23:25:45;5.23;;;0.70;;
50086;SDS011;35967;50.718;7.050;2023-06-26T23:35:48;3.20;;;0.97;;
50086;SDS011;35967;50.718;7.050;2023-06-26T23:45:52;5.33;;;0.83;;
50086;SDS011;35967;50.718;7.050;2023-06-26T23:55:55;4.67;;;0.90;;
